createdAt,value
2023-05-02T00:00:04.051Z,77.13
2023-05-02T00:02:34.006Z,76.44
2023-05-02T00:05:01.664Z,75.73
2023-05-02T00:07:29.333Z,75.75
2023-05-02T00:09:56.948Z,75.30
2023-05-02T00:12:24.498Z,77.13
2023-05-02T00:14:52.215Z,75.84
2023-05-02T00:17:20.535Z,75.52
2023-05-02T00:19:49.505Z,75.87
2023-05-02T00:22:17.055Z,75.45
2023-05-02T00:24:44.710Z,75.93
2023-05-02T00:27:12.211Z,78.05
2023-05-02T00:29:39.767Z,77.36
2023-05-02T00:32:07.327Z,75.97
2023-05-02T00:34:34.962Z,75.71
2023-05-02T00:37:03.846Z,76.00
2023-05-02T00:39:31.380Z,76.15
2023-05-02T00:41:59.223Z,76.12
2023-05-02T00:44:26.904Z,76.52
2023-05-02T00:46:55.338Z,77.47
2023-05-02T00:49:23.394Z,76.77
2023-05-02T00:51:50.974Z,77.61
2023-05-02T00:54:19.902Z,76.55
2023-05-02T00:56:47.824Z,77.07
2023-05-02T00:59:16.885Z,77.64
2023-05-02T01:01:58.319Z,76.55
2023-05-02T01:04:36.968Z,76.19
2023-05-02T01:07:18.997Z,76.91
2023-05-02T01:09:58.913Z,77.06
2023-05-02T01:12:29.902Z,79.70
2023-05-02T01:14:59.626Z,77.29
2023-05-02T01:17:29.913Z,76.88
2023-05-02T01:20:00.538Z,76.45
2023-05-02T01:22:30.264Z,76.11
2023-05-02T01:25:08.420Z,76.70
2023-05-02T01:27:44.566Z,79.39
2023-05-02T01:30:16.022Z,76.58
2023-05-02T01:32:46.806Z,75.99
2023-05-02T01:35:17.016Z,76.77
2023-05-02T01:37:46.339Z,76.53
2023-05-02T01:40:18.153Z,77.22
2023-05-02T01:42:48.096Z,76.57
2023-05-02T01:45:17.614Z,79.11
2023-05-02T01:47:46.695Z,78.63
2023-05-02T01:50:18.428Z,78.03
2023-05-02T01:52:48.125Z,76.63
2023-05-02T01:55:18.543Z,76.46
2023-05-02T01:57:48.596Z,77.61
2023-05-02T02:00:19.630Z,76.88
2023-05-02T02:02:48.628Z,76.08
2023-05-02T02:05:19.027Z,76.26
2023-05-02T02:07:47.021Z,77.12
2023-05-02T02:10:14.647Z,76.75
2023-05-02T02:12:44.651Z,76.27
2023-05-02T02:15:20.741Z,75.69
2023-05-02T02:17:53.453Z,76.48
2023-05-02T02:20:21.602Z,76.59
2023-05-02T02:22:50.100Z,76.23
2023-05-02T02:25:18.493Z,77.13
2023-05-02T02:27:46.051Z,77.50
2023-05-02T02:30:13.653Z,78.01
2023-05-02T02:32:42.554Z,79.08
2023-05-02T02:35:11.536Z,77.32
2023-05-02T02:37:43.167Z,75.88
2023-05-02T02:40:17.733Z,76.02
2023-05-02T02:42:52.988Z,76.17
2023-05-02T02:45:34.931Z,76.42
2023-05-02T02:48:18.115Z,77.14
2023-05-02T02:50:55.999Z,77.15
2023-05-02T02:53:28.581Z,76.59
2023-05-02T02:56:01.441Z,76.22
2023-05-02T02:58:40.611Z,76.73
2023-05-02T03:01:15.966Z,77.61
2023-05-02T03:03:47.297Z,76.86
2023-05-02T03:06:15.387Z,77.63
2023-05-02T03:08:44.075Z,77.49
2023-05-02T03:11:12.136Z,77.86
2023-05-02T03:13:39.874Z,77.77
2023-05-02T03:16:30.806Z,77.56
2023-05-02T03:18:59.695Z,77.39
2023-05-02T03:21:27.323Z,77.10
2023-05-02T03:23:54.855Z,77.99
2023-05-02T03:26:22.368Z,79.26
2023-05-02T03:28:51.362Z,80.93
2023-05-02T03:31:18.954Z,79.77
2023-05-02T03:33:46.531Z,77.69
2023-05-02T03:36:16.210Z,77.57
2023-05-02T03:38:43.774Z,76.90
2023-05-02T03:41:11.357Z,77.38
2023-05-02T03:43:38.921Z,76.95
2023-05-02T03:46:08.194Z,76.95
2023-05-02T03:48:36.584Z,77.25
2023-05-02T03:51:06.165Z,77.68
2023-05-02T03:53:35.029Z,78.53
2023-05-02T03:56:02.652Z,77.52
2023-05-02T03:58:30.277Z,79.79
2023-05-02T04:00:57.769Z,79.00
2023-05-02T04:03:27.170Z,77.56
2023-05-02T04:05:56.092Z,77.19
2023-05-02T04:08:23.636Z,76.70
2023-05-02T04:10:53.149Z,76.75
2023-05-02T04:13:20.797Z,77.30
2023-05-02T04:15:48.440Z,77.28
2023-05-02T04:18:16.625Z,78.11
2023-05-02T04:20:45.320Z,78.28
2023-05-02T04:23:13.291Z,77.78
2023-05-02T04:25:40.950Z,77.86
2023-05-02T04:28:09.917Z,79.02
2023-05-02T04:30:37.725Z,80.13
2023-05-02T04:33:05.456Z,78.79
2023-05-02T04:35:33.129Z,79.92
2023-05-02T04:38:01.050Z,79.10
2023-05-02T04:40:28.806Z,77.98
2023-05-02T04:42:56.378Z,77.79
2023-05-02T04:45:26.762Z,77.97
2023-05-02T04:47:54.383Z,78.49
2023-05-02T04:50:22.353Z,78.50
2023-05-02T04:52:50.638Z,79.42
2023-05-02T04:55:18.865Z,79.94
2023-05-02T04:57:46.511Z,79.84
2023-05-02T05:00:15.566Z,80.06
2023-05-02T05:02:45.626Z,81.77
2023-05-02T05:05:13.305Z,79.70
2023-05-02T05:07:41.073Z,78.48
2023-05-02T05:10:11.286Z,78.19
2023-05-02T05:12:38.986Z,77.82
2023-05-02T05:15:07.218Z,77.60
2023-05-02T05:17:34.897Z,77.48
2023-05-02T05:20:04.256Z,77.39
2023-05-02T05:22:31.992Z,77.27
2023-05-02T05:25:00.004Z,77.27
2023-05-02T05:27:28.798Z,76.93
2023-05-02T05:29:56.440Z,77.56
2023-05-02T05:32:24.256Z,77.56
2023-05-02T05:34:52.996Z,77.55
2023-05-02T05:37:22.528Z,77.80
2023-05-02T05:39:50.226Z,79.17
2023-05-02T05:42:17.943Z,78.49
2023-05-02T05:44:45.637Z,78.08
2023-05-02T05:47:13.848Z,78.34
2023-05-02T05:49:41.560Z,78.39
2023-05-02T05:52:09.886Z,78.06
2023-05-02T05:54:38.998Z,79.00
2023-05-02T05:57:06.970Z,79.43
2023-05-02T05:59:36.441Z,79.83
2023-05-02T06:02:04.555Z,79.14
2023-05-02T06:04:32.356Z,78.06
2023-05-02T06:07:00.224Z,77.28
2023-05-02T06:09:27.996Z,77.39
2023-05-02T06:11:56.975Z,78.98
2023-05-02T06:14:24.813Z,77.88
2023-05-02T06:16:52.381Z,77.15
2023-05-02T06:19:20.048Z,77.94
2023-05-02T06:21:50.590Z,78.85
2023-05-02T06:24:18.250Z,77.38
2023-05-02T06:26:46.314Z,76.68
2023-05-02T06:29:15.564Z,77.05
2023-05-02T06:31:43.351Z,76.79
2023-05-02T06:34:11.059Z,76.39
2023-05-02T06:36:38.671Z,77.73
2023-05-02T06:39:06.498Z,78.46
2023-05-02T06:41:34.127Z,78.44
2023-05-02T06:44:01.709Z,77.64
2023-05-02T06:46:31.871Z,78.81
2023-05-02T06:48:59.592Z,77.70
2023-05-02T06:51:27.704Z,77.19
2023-05-02T06:53:55.385Z,77.44
2023-05-02T06:56:23.004Z,77.04
2023-05-02T06:58:51.016Z,77.32
2023-05-02T07:01:18.942Z,77.09
2023-05-02T07:03:48.810Z,76.71
2023-05-02T07:06:16.672Z,76.81
2023-05-02T07:08:44.372Z,76.50
2023-05-02T07:11:12.021Z,77.20
2023-05-02T07:13:39.665Z,77.02
2023-05-02T07:16:08.600Z,76.89
2023-05-02T07:18:36.529Z,76.74
2023-05-02T07:21:05.838Z,76.47
2023-05-02T07:23:33.440Z,76.78
2023-05-02T07:26:01.097Z,77.55
2023-05-02T07:28:28.746Z,77.43
2023-05-02T07:30:56.604Z,77.79
2023-05-02T07:33:24.434Z,76.94
2023-05-02T07:35:52.473Z,76.55
2023-05-02T07:38:21.545Z,78.10
2023-05-02T07:40:49.236Z,77.94
2023-05-02T07:43:16.995Z,77.61
2023-05-02T07:45:44.803Z,77.17
2023-05-02T07:48:12.696Z,77.10
2023-05-02T07:50:40.414Z,76.13
2023-05-02T07:53:08.151Z,76.28
2023-05-02T07:55:37.143Z,77.21
2023-05-02T07:58:04.887Z,76.97
2023-05-02T08:00:32.548Z,76.63
2023-05-02T08:03:00.321Z,76.68
2023-05-02T08:05:28.059Z,76.93
2023-05-02T08:07:55.609Z,75.74
2023-05-02T08:10:24.276Z,76.68
2023-05-02T08:12:53.164Z,76.83
2023-05-02T08:15:20.858Z,76.50
2023-05-02T08:17:48.499Z,77.12
2023-05-02T08:20:16.473Z,75.75
2023-05-02T08:22:44.079Z,75.19
2023-05-02T08:25:11.614Z,75.55
2023-05-02T08:27:39.193Z,75.54
2023-05-02T08:30:09.548Z,75.74
2023-05-02T08:32:38.297Z,74.65
2023-05-02T08:35:06.833Z,74.21
2023-05-02T08:37:34.581Z,74.44
2023-05-02T08:40:02.498Z,74.75
2023-05-02T08:42:34.083Z,75.35
2023-05-02T08:45:02.216Z,74.63
2023-05-02T08:47:32.787Z,73.73
2023-05-02T08:50:01.595Z,73.63
2023-05-02T08:52:30.502Z,72.99
2023-05-02T08:54:58.992Z,72.74
2023-05-02T08:57:27.378Z,73.00
2023-05-02T08:59:54.997Z,72.42
2023-05-02T09:02:37.503Z,72.16
2023-05-02T09:05:08.906Z,72.50
2023-05-02T09:07:46.155Z,73.68
2023-05-02T09:10:14.067Z,72.95
2023-05-02T09:12:41.744Z,72.47
2023-05-02T09:15:13.839Z,71.50
2023-05-02T09:17:47.229Z,71.74
2023-05-02T09:20:16.251Z,72.30
2023-05-02T09:22:50.073Z,71.80
2023-05-02T09:25:18.129Z,71.27
2023-05-02T09:27:53.339Z,70.84
2023-05-02T09:30:23.218Z,70.22
2023-05-02T09:32:55.440Z,70.91
2023-05-02T09:35:26.399Z,70.33
2023-05-02T09:37:55.243Z,70.36
2023-05-02T09:40:24.306Z,70.43
2023-05-02T09:42:52.364Z,70.06
2023-05-02T09:45:24.099Z,69.13
2023-05-02T09:47:54.300Z,69.75
2023-05-02T09:50:35.679Z,70.42
2023-05-02T09:53:04.953Z,68.75
2023-05-02T09:55:33.052Z,68.96
2023-05-02T09:58:01.510Z,69.65
2023-05-02T10:00:43.226Z,67.12
2023-05-02T10:03:16.541Z,67.47
2023-05-02T10:05:45.754Z,66.59
2023-05-02T10:08:14.563Z,64.21
2023-05-02T10:10:51.199Z,62.67
2023-05-02T10:13:22.289Z,62.43
2023-05-02T10:15:55.071Z,62.38
2023-05-02T10:18:29.464Z,61.43
2023-05-02T10:20:59.600Z,61.79
2023-05-02T10:23:29.047Z,61.37
2023-05-02T10:26:00.017Z,61.35
2023-05-02T10:28:28.830Z,60.49
2023-05-02T10:30:57.110Z,59.52
2023-05-02T10:33:26.754Z,59.64
2023-05-02T10:35:54.488Z,59.78
2023-05-02T10:38:24.619Z,60.34
2023-05-02T10:40:57.585Z,59.88
2023-05-02T10:43:27.823Z,60.35
2023-05-02T10:45:55.996Z,61.33
2023-05-02T10:48:27.038Z,60.83
2023-05-02T10:50:56.010Z,61.96
2023-05-02T10:53:26.074Z,59.88
2023-05-02T10:56:13.312Z,58.67
2023-05-02T10:58:41.507Z,58.84
2023-05-02T11:01:36.653Z,57.66
2023-05-02T11:04:07.198Z,55.99
2023-05-02T11:06:36.373Z,55.90
2023-05-02T11:09:34.085Z,55.09
2023-05-02T11:12:04.668Z,54.31
2023-05-02T11:14:50.053Z,54.95
2023-05-02T11:17:18.999Z,54.41
2023-05-02T11:20:29.169Z,56.13
2023-05-02T11:23:16.869Z,54.16
2023-05-02T11:25:46.456Z,54.37
2023-05-02T11:28:42.089Z,54.40
2023-05-02T11:31:10.802Z,55.83
2023-05-02T11:33:38.404Z,55.06
2023-05-02T11:36:06.451Z,53.83
2023-05-02T11:38:39.559Z,51.02
2023-05-02T11:41:07.228Z,51.79
2023-05-02T11:43:34.796Z,52.13
2023-05-02T11:46:05.314Z,50.86
2023-05-02T11:48:33.257Z,50.71
2023-05-02T11:51:05.036Z,49.58
2023-05-02T11:53:33.367Z,51.07
2023-05-02T11:56:04.730Z,49.09
2023-05-02T11:58:34.175Z,51.41
2023-05-02T12:01:14.122Z,49.57
2023-05-02T12:03:42.006Z,49.63
2023-05-02T12:06:12.238Z,48.74
2023-05-02T12:08:41.456Z,49.76
2023-05-02T12:11:10.936Z,49.01
2023-05-02T12:13:47.217Z,48.04
2023-05-02T12:16:15.386Z,47.76
2023-05-02T12:18:43.769Z,47.21
2023-05-02T12:21:11.606Z,46.95
2023-05-02T12:23:42.297Z,47.17
2023-05-02T12:26:25.280Z,46.90
2023-05-02T12:28:54.828Z,49.58
2023-05-02T12:31:22.919Z,48.10
2023-05-02T12:33:52.435Z,48.58
2023-05-02T12:36:20.567Z,47.87
2023-05-02T12:38:53.123Z,46.61
2023-05-02T12:41:32.496Z,46.80
2023-05-02T12:44:01.035Z,48.75
2023-05-02T12:46:29.385Z,48.44
2023-05-02T12:49:03.926Z,44.45
2023-05-02T12:51:33.043Z,46.39
2023-05-02T12:54:00.932Z,45.79
2023-05-02T12:56:32.535Z,47.24
2023-05-02T12:59:01.397Z,45.86
2023-05-02T13:01:29.448Z,46.38
2023-05-02T13:03:57.074Z,46.46
2023-05-02T13:06:24.768Z,45.88
2023-05-02T13:08:52.325Z,45.76
2023-05-02T13:11:20.630Z,45.21
2023-05-02T13:13:49.560Z,46.00
2023-05-02T13:16:17.222Z,46.89
2023-05-02T13:18:46.427Z,46.19
2023-05-02T13:21:16.118Z,46.70
2023-05-02T13:23:44.271Z,46.56
2023-05-02T13:26:12.406Z,46.97
2023-05-02T13:28:40.007Z,46.35
2023-05-02T13:31:09.037Z,47.45
2023-05-02T13:33:36.784Z,49.32
2023-05-02T13:36:04.707Z,50.87
2023-05-02T13:38:32.670Z,52.34
2023-05-02T13:41:00.247Z,53.25
2023-05-02T13:43:28.055Z,54.30
2023-05-02T13:45:55.789Z,55.47
2023-05-02T13:48:25.300Z,56.81
2023-05-02T13:50:52.941Z,58.33
2023-05-02T13:53:20.573Z,59.72
2023-05-02T13:55:48.362Z,60.41
2023-05-02T13:58:16.080Z,60.99
2023-05-02T14:00:43.660Z,61.86
2023-05-02T14:03:12.166Z,62.32
2023-05-02T14:35:47.265Z,64.33
2023-05-02T14:42:48.624Z,63.75
2023-05-02T14:49:05.030Z,63.05
2023-05-02T14:52:07.365Z,62.42
2023-05-02T14:54:44.611Z,60.95
2023-05-02T14:57:34.163Z,60.20
2023-05-02T15:03:11.812Z,60.06
2023-05-02T15:06:10.403Z,60.37
2023-05-02T15:09:27.095Z,56.16
2023-05-02T15:12:15.488Z,57.34
2023-05-02T15:17:16.928Z,58.12
2023-05-02T15:19:44.543Z,56.73
2023-05-02T15:22:12.186Z,56.01
2023-05-02T15:24:41.464Z,57.28
2023-05-02T15:27:09.796Z,55.24
2023-05-02T15:29:37.467Z,53.87
2023-05-02T15:32:05.315Z,53.51
2023-05-02T15:34:32.970Z,55.89
2023-05-02T15:37:02.043Z,54.42
2023-05-02T15:39:29.717Z,53.00
2023-05-02T15:41:58.921Z,50.14
2023-05-02T15:44:26.996Z,50.32
2023-05-02T15:46:55.932Z,49.91
2023-05-02T15:49:24.577Z,48.12
2023-05-02T15:51:52.159Z,47.90
2023-05-02T15:54:20.318Z,47.53
2023-05-02T15:56:47.933Z,50.99
2023-05-02T15:59:17.290Z,50.11
2023-05-02T16:01:45.003Z,49.77
2023-05-02T16:04:12.861Z,51.54
2023-05-02T16:06:41.593Z,51.32
2023-05-02T16:09:10.100Z,50.26
2023-05-02T16:11:37.769Z,49.20
2023-05-02T16:14:05.349Z,49.91
2023-05-02T16:16:34.611Z,51.46
2023-05-02T16:19:02.207Z,49.78
2023-05-02T16:21:29.779Z,50.50
2023-05-02T16:23:57.414Z,50.38
2023-05-02T16:26:25.784Z,51.74
2023-05-02T16:28:54.338Z,51.31
2023-05-02T16:31:22.010Z,52.10
2023-05-02T16:33:51.290Z,52.82
2023-05-02T16:36:18.891Z,51.29
2023-05-02T16:38:46.570Z,51.36
2023-05-02T16:41:14.250Z,51.23
2023-05-02T16:43:41.867Z,50.47
2023-05-02T16:46:09.552Z,50.00
2023-05-02T16:48:37.225Z,49.99
2023-05-02T16:51:06.994Z,50.73
2023-05-02T16:53:34.616Z,49.88
2023-05-02T16:56:02.299Z,51.63
2023-05-02T16:58:30.019Z,50.83
2023-05-02T17:00:57.880Z,50.72
2023-05-02T17:03:25.764Z,49.67
2023-05-02T17:05:53.480Z,49.51
2023-05-02T17:08:36.413Z,49.24
2023-05-02T17:11:04.017Z,49.73
2023-05-02T17:13:31.579Z,49.95
2023-05-02T17:15:59.452Z,51.03
2023-05-02T17:18:27.326Z,52.34
2023-05-02T17:20:55.788Z,51.85
2023-05-02T17:23:24.011Z,50.78
2023-05-02T17:26:02.700Z,51.31
2023-05-02T17:28:36.677Z,50.31
2023-05-02T17:31:05.534Z,51.33
2023-05-02T17:33:35.729Z,50.36
2023-05-02T17:36:14.342Z,50.16
2023-05-02T17:38:44.269Z,51.58
2023-05-02T17:41:14.900Z,52.38
2023-05-02T17:43:43.391Z,52.95
2023-05-02T17:46:11.186Z,53.34
2023-05-02T17:48:39.147Z,54.16
2023-05-02T17:51:07.439Z,55.38
2023-05-02T17:53:40.790Z,56.78
2023-05-02T17:56:08.853Z,57.38
2023-05-02T17:58:38.142Z,58.75
2023-05-02T18:01:09.350Z,58.22
2023-05-02T18:03:37.698Z,58.21
2023-05-02T18:06:05.969Z,59.03
2023-05-02T18:08:35.392Z,60.37
2023-05-02T18:13:52.137Z,60.95
2023-05-02T18:16:20.625Z,61.19
2023-05-02T18:18:48.340Z,61.84
2023-05-02T18:21:23.094Z,63.19
2023-05-02T18:23:59.328Z,63.86
2023-05-02T18:26:39.002Z,63.53
2023-05-02T18:29:17.041Z,64.41
2023-05-02T18:31:48.147Z,64.04
2023-05-02T18:34:16.467Z,64.31
2023-05-02T18:36:46.367Z,64.39
2023-05-02T18:39:15.886Z,64.45
2023-05-02T18:41:43.497Z,64.49
2023-05-02T18:44:13.345Z,64.48
2023-05-02T18:46:41.694Z,64.63
2023-05-02T18:49:10.012Z,64.70
2023-05-02T18:51:37.665Z,64.79
2023-05-02T18:54:05.867Z,65.12
2023-05-02T18:56:33.772Z,64.80
2023-05-02T18:59:01.897Z,64.92
2023-05-02T19:01:31.024Z,65.66
2023-05-02T19:04:00.366Z,65.42
2023-05-02T19:06:28.377Z,66.19
2023-05-02T19:08:56.006Z,66.36
2023-05-02T19:11:23.785Z,66.96
2023-05-02T19:13:51.703Z,66.64
2023-05-02T19:16:21.385Z,66.28
2023-05-02T19:18:52.395Z,66.72
2023-05-02T19:21:20.055Z,66.49
2023-05-02T19:23:47.699Z,67.69
2023-05-02T19:26:16.868Z,68.33
2023-05-02T19:28:45.578Z,67.63
2023-05-02T19:31:14.846Z,67.74
2023-05-02T19:33:49.887Z,67.94
2023-05-02T19:36:19.881Z,68.17
2023-05-02T19:38:49.541Z,68.50
2023-05-02T19:41:19.170Z,68.33
2023-05-02T19:43:47.058Z,68.75
2023-05-02T19:46:15.572Z,68.84
2023-05-02T19:48:43.411Z,68.49
2023-05-02T19:51:11.284Z,68.69
2023-05-02T19:53:40.487Z,68.89
2023-05-02T19:56:08.386Z,68.81
2023-05-02T19:58:36.186Z,69.06
2023-05-02T20:01:04.220Z,69.07
2023-05-02T20:03:31.873Z,68.92
2023-05-02T20:05:59.507Z,69.01
2023-05-02T20:08:28.223Z,69.46
2023-05-02T20:10:57.314Z,69.38
2023-05-02T20:13:25.194Z,69.05
2023-05-02T20:15:53.699Z,69.03
2023-05-02T20:18:21.790Z,68.74
2023-05-02T20:20:49.585Z,68.88
2023-05-02T20:23:17.292Z,68.95
2023-05-02T20:25:45.568Z,68.74
2023-05-02T20:28:14.630Z,69.29
2023-05-02T20:30:43.806Z,69.36
2023-05-02T20:33:16.114Z,69.01
2023-05-02T20:35:44.490Z,69.02
2023-05-02T20:38:12.319Z,68.95
2023-05-02T20:40:42.511Z,68.80
2023-05-02T20:43:10.154Z,68.88
2023-05-02T20:45:40.113Z,69.46
2023-05-02T20:48:07.958Z,69.76
2023-05-02T20:50:35.649Z,69.98
2023-05-02T20:53:04.474Z,70.00
2023-05-02T20:55:32.010Z,70.19
2023-05-02T20:57:59.859Z,70.44
2023-05-02T21:00:27.665Z,70.62
2023-05-02T21:02:56.631Z,70.51
2023-05-02T21:05:24.197Z,70.14
2023-05-02T21:07:51.832Z,70.49
2023-05-02T21:10:19.519Z,70.44
2023-05-02T21:12:47.095Z,71.00
2023-05-02T21:15:15.252Z,71.04
2023-05-02T21:17:42.840Z,70.90
2023-05-02T21:20:12.786Z,70.94
2023-05-02T21:22:41.905Z,71.64
2023-05-02T21:25:10.555Z,71.83
2023-05-02T21:27:38.131Z,71.19
2023-05-02T21:30:06.730Z,71.14
2023-05-02T21:32:34.362Z,71.21
2023-05-02T21:35:02.373Z,71.51
2023-05-02T21:37:31.909Z,71.83
2023-05-02T21:39:59.623Z,71.84
2023-05-02T21:42:27.162Z,71.52
2023-05-02T21:44:54.791Z,71.63
2023-05-02T21:47:22.556Z,71.25
2023-05-02T21:49:50.191Z,70.71
2023-05-02T21:52:17.722Z,70.64
2023-05-02T21:54:49.857Z,69.98
2023-05-02T21:57:17.419Z,69.71
2023-05-02T21:59:44.973Z,70.10
2023-05-02T22:02:12.880Z,70.01
2023-05-02T22:04:40.602Z,70.43
2023-05-02T22:07:08.125Z,70.51
2023-05-02T22:09:36.069Z,70.30
2023-05-02T22:12:05.691Z,70.09
2023-05-02T22:14:41.587Z,70.05
2023-05-02T22:17:12.353Z,70.02
2023-05-02T22:19:40.556Z,70.15
2023-05-02T22:22:08.265Z,70.66
2023-05-02T22:24:35.787Z,70.73
2023-05-02T22:27:04.855Z,70.95
2023-05-02T22:29:32.345Z,71.37
2023-05-02T22:31:59.923Z,71.24
2023-05-02T22:34:27.454Z,71.04
2023-05-02T22:36:54.995Z,71.41
2023-05-02T22:39:22.547Z,71.58
2023-05-02T22:41:50.054Z,71.49
2023-05-02T22:44:18.970Z,71.56
2023-05-02T22:46:46.658Z,71.60
2023-05-02T22:49:14.281Z,71.58
2023-05-02T22:51:42.358Z,71.56
2023-05-02T22:54:10.294Z,71.66
2023-05-02T22:56:37.971Z,71.70
2023-05-02T22:59:05.556Z,71.66
2023-05-02T23:01:34.507Z,71.82
2023-05-02T23:04:02.176Z,71.68
2023-05-02T23:06:29.746Z,71.56
2023-05-02T23:08:57.274Z,71.56
2023-05-02T23:11:25.949Z,71.56
2023-05-02T23:13:53.482Z,71.55
2023-05-02T23:16:21.147Z,71.43
2023-05-02T23:18:50.440Z,71.31
2023-05-02T23:21:18.165Z,71.57
2023-05-02T23:23:45.696Z,71.42
2023-05-02T23:26:13.428Z,71.46
2023-05-02T23:28:41.082Z,71.60
2023-05-02T23:31:08.937Z,71.84
2023-05-02T23:33:37.137Z,71.70
2023-05-02T23:36:08.111Z,71.95
2023-05-02T23:38:36.199Z,71.88
2023-05-02T23:41:03.766Z,71.57
2023-05-02T23:43:31.330Z,71.69
2023-05-02T23:45:58.825Z,73.48
2023-05-02T23:48:26.335Z,73.72
2023-05-02T23:50:54.087Z,72.80
2023-05-02T23:53:22.980Z,74.73
2023-05-02T23:55:50.484Z,73.86
2023-05-02T23:58:18.038Z,73.18
